sensor_id;sensor_type;location;lat;lon;timestamp;P1;durP1;ratioP1;P2;durP2;ratioP2
44766;SDS011;30487;48.716;9.272;2023-07-29T00:01:16;5.25;;;2.05;;
44766;SDS011;30487;48.716;9.272;2023-07-29T00:03:41;3.15;;;1.95;;
44766;SDS011;30487;48.716;9.272;2023-07-29T00:06:09;4.07;;;2.00;;
44766;SDS011;30487;48.716;9.272;2023-07-29T00:08:35;4.60;;;2.03;;
44766;SDS011;30487;48.716;9.272;2023-07-29T00:11:00;2.80;;;1.85;;
44766;SDS011;30487;48.716;9.272;2023-07-29T00:13:26;3.20;;;1.50;;
44766;SDS011;30487;48.716;9.272;2023-07-29T00:15:53;4.15;;;1.90;;
44766;SDS011;30487;48.716;9.272;2023-07-29T00:18:19;2.70;;;1.63;;
44766;SDS011;30487;48.716;9.272;2023-07-29T00:20:45;3.42;;;2.00;;
44766;SDS011;30487;48.716;9.272;2023-07-29T00:23:10;2.53;;;1.73;;
44766;SDS011;30487;48.716;9.272;2023-07-29T00:25:36;4.05;;;2.03;;
44766;SDS011;30487;48.716;9.272;2023-07-29T00:28:01;4.15;;;1.83;;
44766;SDS011;30487;48.716;9.272;2023-07-29T00:30:27;3.47;;;1.77;;
44766;SDS011;30487;48.716;9.272;2023-07-29T00:32:52;5.22;;;1.80;;
44766;SDS011;30487;48.716;9.272;2023-07-29T00:35:18;3.83;;;1.70;;
44766;SDS011;30487;48.716;9.272;2023-07-29T00:37:43;3.22;;;1.70;;
44766;SDS011;30487;48.716;9.272;2023-07-29T00:40:12;4.47;;;1.65;;
44766;SDS011;30487;48.716;9.272;2023-07-29T00:42:44;3.83;;;1.80;;
44766;SDS011;30487;48.716;9.272;2023-07-29T00:45:10;3.00;;;1.70;;
44766;SDS011;30487;48.716;9.272;2023-07-29T00:47:35;2.90;;;1.60;;
44766;SDS011;30487;48.716;9.272;2023-07-29T00:50:02;3.17;;;1.63;;
44766;SDS011;30487;48.716;9.272;2023-07-29T00:52:28;3.17;;;1.70;;
44766;SDS011;30487;48.716;9.272;2023-07-29T00:54:54;3.95;;;1.58;;
44766;SDS011;30487;48.716;9.272;2023-07-29T00:57:19;3.40;;;1.58;;
44766;SDS011;30487;48.716;9.272;2023-07-29T00:59:46;3.70;;;2.00;;
44766;SDS011;30487;48.716;9.272;2023-07-29T01:02:12;3.17;;;1.67;;
44766;SDS011;30487;48.716;9.272;2023-07-29T01:04:38;2.60;;;1.60;;
44766;SDS011;30487;48.716;9.272;2023-07-29T01:07:07;3.00;;;1.60;;
44766;SDS011;30487;48.716;9.272;2023-07-29T01:09:56;4.13;;;1.58;;
44766;SDS011;30487;48.716;9.272;2023-07-29T01:17:42;3.35;;;1.42;;
44766;SDS011;30487;48.716;9.272;2023-07-29T01:20:13;2.50;;;1.40;;
44766;SDS011;30487;48.716;9.272;2023-07-29T01:22:40;2.70;;;1.67;;
44766;SDS011;30487;48.716;9.272;2023-07-29T01:25:07;2.85;;;1.60;;
44766;SDS011;30487;48.716;9.272;2023-07-29T01:27:33;5.03;;;1.70;;
44766;SDS011;30487;48.716;9.272;2023-07-29T01:29:59;2.60;;;1.50;;
44766;SDS011;30487;48.716;9.272;2023-07-29T01:32:37;2.30;;;1.50;;
44766;SDS011;30487;48.716;9.272;2023-07-29T01:35:31;3.05;;;1.80;;
44766;SDS011;30487;48.716;9.272;2023-07-29T01:38:07;3.30;;;1.70;;
44766;SDS011;30487;48.716;9.272;2023-07-29T01:40:40;3.03;;;1.83;;
44766;SDS011;30487;48.716;9.272;2023-07-29T01:43:07;2.53;;;1.48;;
44766;SDS011;30487;48.716;9.272;2023-07-29T01:45:33;3.95;;;2.20;;
44766;SDS011;30487;48.716;9.272;2023-07-29T01:48:02;3.10;;;1.48;;
44766;SDS011;30487;48.716;9.272;2023-07-29T01:50:31;2.90;;;1.63;;
44766;SDS011;30487;48.716;9.272;2023-07-29T01:52:57;3.83;;;2.00;;
44766;SDS011;30487;48.716;9.272;2023-07-29T01:55:23;3.25;;;1.70;;
44766;SDS011;30487;48.716;9.272;2023-07-29T01:57:49;3.45;;;1.77;;
44766;SDS011;30487;48.716;9.272;2023-07-29T02:00:16;3.85;;;1.88;;
44766;SDS011;30487;48.716;9.272;2023-07-29T02:02:42;2.92;;;1.80;;
44766;SDS011;30487;48.716;9.272;2023-07-29T02:05:07;4.43;;;2.10;;
44766;SDS011;30487;48.716;9.272;2023-07-29T02:07:33;3.85;;;1.92;;
44766;SDS011;30487;48.716;9.272;2023-07-29T02:09:58;2.85;;;1.90;;
44766;SDS011;30487;48.716;9.272;2023-07-29T02:12:24;4.85;;;1.80;;
44766;SDS011;30487;48.716;9.272;2023-07-29T02:14:49;3.70;;;1.98;;
44766;SDS011;30487;48.716;9.272;2023-07-29T02:17:15;3.13;;;1.90;;
44766;SDS011;30487;48.716;9.272;2023-07-29T02:19:40;3.22;;;1.90;;
44766;SDS011;30487;48.716;9.272;2023-07-29T02:22:06;3.28;;;1.88;;
44766;SDS011;30487;48.716;9.272;2023-07-29T02:24:31;3.92;;;2.03;;
44766;SDS011;30487;48.716;9.272;2023-07-29T02:26:57;3.92;;;2.42;;
44766;SDS011;30487;48.716;9.272;2023-07-29T02:29:23;3.70;;;1.90;;
44766;SDS011;30487;48.716;9.272;2023-07-29T02:31:49;4.25;;;1.90;;
44766;SDS011;30487;48.716;9.272;2023-07-29T02:34:15;4.05;;;2.20;;
44766;SDS011;30487;48.716;9.272;2023-07-29T02:36:41;3.58;;;2.15;;
44766;SDS011;30487;48.716;9.272;2023-07-29T02:39:06;3.00;;;1.73;;
44766;SDS011;30487;48.716;9.272;2023-07-29T02:41:32;4.05;;;1.80;;
44766;SDS011;30487;48.716;9.272;2023-07-29T02:43:58;3.85;;;1.88;;
44766;SDS011;30487;48.716;9.272;2023-07-29T02:46:23;3.58;;;1.85;;
44766;SDS011;30487;48.716;9.272;2023-07-29T02:48:50;3.22;;;2.03;;
44766;SDS011;30487;48.716;9.272;2023-07-29T02:51:16;2.90;;;1.77;;
44766;SDS011;30487;48.716;9.272;2023-07-29T02:53:42;5.22;;;1.90;;
44766;SDS011;30487;48.716;9.272;2023-07-29T02:56:07;3.00;;;1.83;;
44766;SDS011;30487;48.716;9.272;2023-07-29T02:58:35;3.90;;;2.10;;
44766;SDS011;30487;48.716;9.272;2023-07-29T03:01:02;6.22;;;1.92;;
44766;SDS011;30487;48.716;9.272;2023-07-29T03:03:28;3.83;;;1.95;;
44766;SDS011;30487;48.716;9.272;2023-07-29T03:06:00;3.53;;;2.10;;
44766;SDS011;30487;48.716;9.272;2023-07-29T03:08:30;3.05;;;1.80;;
44766;SDS011;30487;48.716;9.272;2023-07-29T03:10:56;3.55;;;1.95;;
44766;SDS011;30487;48.716;9.272;2023-07-29T03:13:22;3.35;;;2.17;;
44766;SDS011;30487;48.716;9.272;2023-07-29T03:15:48;3.60;;;1.92;;
44766;SDS011;30487;48.716;9.272;2023-07-29T03:18:14;4.65;;;2.17;;
44766;SDS011;30487;48.716;9.272;2023-07-29T03:20:40;4.22;;;2.00;;
44766;SDS011;30487;48.716;9.272;2023-07-29T03:23:05;3.10;;;2.00;;
44766;SDS011;30487;48.716;9.272;2023-07-29T03:25:31;2.92;;;1.85;;
44766;SDS011;30487;48.716;9.272;2023-07-29T03:27:57;4.57;;;2.30;;
44766;SDS011;30487;48.716;9.272;2023-07-29T03:30:22;3.53;;;1.85;;
44766;SDS011;30487;48.716;9.272;2023-07-29T03:32:48;4.25;;;1.80;;
44766;SDS011;30487;48.716;9.272;2023-07-29T03:35:14;5.28;;;1.88;;
44766;SDS011;30487;48.716;9.272;2023-07-29T03:37:41;5.82;;;1.70;;
44766;SDS011;30487;48.716;9.272;2023-07-29T03:40:07;3.63;;;1.63;;
44766;SDS011;30487;48.716;9.272;2023-07-29T03:42:34;3.58;;;1.60;;
44766;SDS011;30487;48.716;9.272;2023-07-29T03:45:00;8.40;;;2.22;;
44766;SDS011;30487;48.716;9.272;2023-07-29T03:47:25;3.05;;;1.80;;
44766;SDS011;30487;48.716;9.272;2023-07-29T03:49:51;2.90;;;1.83;;
44766;SDS011;30487;48.716;9.272;2023-07-29T03:52:17;4.22;;;1.95;;
44766;SDS011;30487;48.716;9.272;2023-07-29T03:54:42;2.80;;;1.65;;
44766;SDS011;30487;48.716;9.272;2023-07-29T03:57:08;4.53;;;2.13;;
44766;SDS011;30487;48.716;9.272;2023-07-29T03:59:33;4.60;;;2.05;;
44766;SDS011;30487;48.716;9.272;2023-07-29T04:01:59;2.80;;;1.83;;
44766;SDS011;30487;48.716;9.272;2023-07-29T04:04:24;4.20;;;1.70;;
44766;SDS011;30487;48.716;9.272;2023-07-29T04:06:50;3.72;;;1.95;;
44766;SDS011;30487;48.716;9.272;2023-07-29T04:09:15;3.97;;;1.90;;
44766;SDS011;30487;48.716;9.272;2023-07-29T04:11:41;2.70;;;2.00;;
44766;SDS011;30487;48.716;9.272;2023-07-29T04:14:07;3.50;;;2.17;;
44766;SDS011;30487;48.716;9.272;2023-07-29T04:16:32;4.97;;;1.75;;
44766;SDS011;30487;48.716;9.272;2023-07-29T04:18:58;3.17;;;1.70;;
44766;SDS011;30487;48.716;9.272;2023-07-29T04:21:23;3.50;;;2.17;;
44766;SDS011;30487;48.716;9.272;2023-07-29T04:23:49;4.75;;;2.10;;
44766;SDS011;30487;48.716;9.272;2023-07-29T04:26:14;4.97;;;2.20;;
44766;SDS011;30487;48.716;9.272;2023-07-29T04:28:40;2.90;;;1.77;;
44766;SDS011;30487;48.716;9.272;2023-07-29T04:31:05;5.18;;;2.08;;
44766;SDS011;30487;48.716;9.272;2023-07-29T04:33:31;3.78;;;2.15;;
44766;SDS011;30487;48.716;9.272;2023-07-29T04:35:57;4.40;;;2.13;;
44766;SDS011;30487;48.716;9.272;2023-07-29T04:38:24;4.15;;;2.03;;
44766;SDS011;30487;48.716;9.272;2023-07-29T04:40:52;3.72;;;2.00;;
44766;SDS011;30487;48.716;9.272;2023-07-29T04:43:18;8.02;;;2.10;;
44766;SDS011;30487;48.716;9.272;2023-07-29T04:45:44;4.75;;;1.90;;
44766;SDS011;30487;48.716;9.272;2023-07-29T04:48:09;5.50;;;2.25;;
44766;SDS011;30487;48.716;9.272;2023-07-29T04:50:35;3.45;;;2.10;;
44766;SDS011;30487;48.716;9.272;2023-07-29T04:53:00;5.65;;;1.88;;
44766;SDS011;30487;48.716;9.272;2023-07-29T04:55:26;3.60;;;1.90;;
44766;SDS011;30487;48.716;9.272;2023-07-29T04:57:55;3.63;;;1.80;;
44766;SDS011;30487;48.716;9.272;2023-07-29T05:00:20;3.13;;;1.60;;
44766;SDS011;30487;48.716;9.272;2023-07-29T05:02:46;4.78;;;1.60;;
44766;SDS011;30487;48.716;9.272;2023-07-29T05:05:12;5.32;;;1.70;;
44766;SDS011;30487;48.716;9.272;2023-07-29T05:07:38;3.45;;;1.70;;
44766;SDS011;30487;48.716;9.272;2023-07-29T05:10:03;3.38;;;1.55;;
44766;SDS011;30487;48.716;9.272;2023-07-29T05:12:29;2.53;;;1.48;;
44766;SDS011;30487;48.716;9.272;2023-07-29T05:14:56;2.42;;;1.50;;
44766;SDS011;30487;48.716;9.272;2023-07-29T05:17:22;2.60;;;1.30;;
44766;SDS011;30487;48.716;9.272;2023-07-29T05:19:48;2.47;;;1.35;;
44766;SDS011;30487;48.716;9.272;2023-07-29T05:22:13;2.83;;;1.30;;
44766;SDS011;30487;48.716;9.272;2023-07-29T05:24:39;3.10;;;1.38;;
44766;SDS011;30487;48.716;9.272;2023-07-29T05:27:05;3.15;;;1.50;;
44766;SDS011;30487;48.716;9.272;2023-07-29T05:29:30;3.50;;;1.40;;
44766;SDS011;30487;48.716;9.272;2023-07-29T05:31:56;2.75;;;1.45;;
44766;SDS011;30487;48.716;9.272;2023-07-29T05:34:22;3.17;;;1.48;;
44766;SDS011;30487;48.716;9.272;2023-07-29T05:36:47;3.00;;;1.30;;
44766;SDS011;30487;48.716;9.272;2023-07-29T05:39:13;4.45;;;1.65;;
44766;SDS011;30487;48.716;9.272;2023-07-29T05:41:38;5.88;;;1.60;;
44766;SDS011;30487;48.716;9.272;2023-07-29T05:44:04;4.22;;;1.50;;
44766;SDS011;30487;48.716;9.272;2023-07-29T05:46:30;3.40;;;1.67;;
44766;SDS011;30487;48.716;9.272;2023-07-29T05:48:55;6.28;;;1.58;;
44766;SDS011;30487;48.716;9.272;2023-07-29T05:51:21;4.00;;;1.98;;
44766;SDS011;30487;48.716;9.272;2023-07-29T05:53:47;7.13;;;1.70;;
44766;SDS011;30487;48.716;9.272;2023-07-29T05:56:13;6.45;;;1.75;;
44766;SDS011;30487;48.716;9.272;2023-07-29T05:58:38;5.03;;;1.63;;
44766;SDS011;30487;48.716;9.272;2023-07-29T06:01:04;6.45;;;1.55;;
44766;SDS011;30487;48.716;9.272;2023-07-29T06:03:29;3.25;;;1.55;;
44766;SDS011;30487;48.716;9.272;2023-07-29T06:05:55;4.40;;;1.85;;
44766;SDS011;30487;48.716;9.272;2023-07-29T06:08:20;5.75;;;1.83;;
44766;SDS011;30487;48.716;9.272;2023-07-29T06:10:46;3.03;;;1.50;;
44766;SDS011;30487;48.716;9.272;2023-07-29T06:13:11;2.88;;;1.50;;
44766;SDS011;30487;48.716;9.272;2023-07-29T06:15:37;6.32;;;2.00;;
44766;SDS011;30487;48.716;9.272;2023-07-29T06:18:03;4.38;;;1.63;;
44766;SDS011;30487;48.716;9.272;2023-07-29T06:20:28;3.80;;;2.05;;
44766;SDS011;30487;48.716;9.272;2023-07-29T06:22:54;4.97;;;2.08;;
44766;SDS011;30487;48.716;9.272;2023-07-29T06:25:20;8.57;;;1.75;;
44766;SDS011;30487;48.716;9.272;2023-07-29T06:27:45;3.95;;;1.70;;
44766;SDS011;30487;48.716;9.272;2023-07-29T06:30:11;6.18;;;1.90;;
44766;SDS011;30487;48.716;9.272;2023-07-29T06:32:36;7.88;;;1.75;;
44766;SDS011;30487;48.716;9.272;2023-07-29T06:35:02;4.63;;;1.70;;
44766;SDS011;30487;48.716;9.272;2023-07-29T06:37:28;4.10;;;1.60;;
44766;SDS011;30487;48.716;9.272;2023-07-29T06:39:53;3.55;;;1.60;;
44766;SDS011;30487;48.716;9.272;2023-07-29T06:42:19;5.60;;;1.60;;
44766;SDS011;30487;48.716;9.272;2023-07-29T06:44:44;4.70;;;1.55;;
44766;SDS011;30487;48.716;9.272;2023-07-29T06:47:12;3.15;;;1.35;;
44766;SDS011;30487;48.716;9.272;2023-07-29T06:49:38;2.35;;;1.35;;
44766;SDS011;30487;48.716;9.272;2023-07-29T06:52:04;2.65;;;1.30;;
44766;SDS011;30487;48.716;9.272;2023-07-29T06:54:29;3.70;;;1.48;;
44766;SDS011;30487;48.716;9.272;2023-07-29T06:56:55;5.93;;;1.30;;
44766;SDS011;30487;48.716;9.272;2023-07-29T06:59:20;3.28;;;1.40;;
44766;SDS011;30487;48.716;9.272;2023-07-29T07:01:46;3.42;;;1.27;;
44766;SDS011;30487;48.716;9.272;2023-07-29T07:04:11;2.50;;;1.50;;
44766;SDS011;30487;48.716;9.272;2023-07-29T07:06:37;3.47;;;1.50;;
44766;SDS011;30487;48.716;9.272;2023-07-29T07:09:03;3.75;;;1.48;;
44766;SDS011;30487;48.716;9.272;2023-07-29T07:11:28;6.20;;;1.70;;
44766;SDS011;30487;48.716;9.272;2023-07-29T07:13:54;3.65;;;1.88;;
44766;SDS011;30487;48.716;9.272;2023-07-29T07:16:19;3.47;;;1.90;;
44766;SDS011;30487;48.716;9.272;2023-07-29T07:18:45;4.10;;;1.88;;
44766;SDS011;30487;48.716;9.272;2023-07-29T07:21:11;4.00;;;2.00;;
44766;SDS011;30487;48.716;9.272;2023-07-29T07:23:36;4.95;;;1.98;;
44766;SDS011;30487;48.716;9.272;2023-07-29T07:26:03;3.55;;;1.58;;
44766;SDS011;30487;48.716;9.272;2023-07-29T07:28:29;3.30;;;1.48;;
44766;SDS011;30487;48.716;9.272;2023-07-29T07:30:54;2.30;;;1.40;;
44766;SDS011;30487;48.716;9.272;2023-07-29T07:33:20;4.78;;;1.35;;
44766;SDS011;30487;48.716;9.272;2023-07-29T07:35:46;2.70;;;1.55;;
44766;SDS011;30487;48.716;9.272;2023-07-29T07:38:12;2.63;;;1.30;;
44766;SDS011;30487;48.716;9.272;2023-07-29T07:40:37;2.35;;;1.15;;
44766;SDS011;30487;48.716;9.272;2023-07-29T07:43:03;2.25;;;1.10;;
44766;SDS011;30487;48.716;9.272;2023-07-29T07:45:29;2.83;;;1.02;;
44766;SDS011;30487;48.716;9.272;2023-07-29T07:47:54;3.55;;;1.10;;
44766;SDS011;30487;48.716;9.272;2023-07-29T07:50:21;2.25;;;1.00;;
44766;SDS011;30487;48.716;9.272;2023-07-29T07:52:46;2.53;;;1.15;;
44766;SDS011;30487;48.716;9.272;2023-07-29T07:55:12;3.03;;;1.08;;
44766;SDS011;30487;48.716;9.272;2023-07-29T07:57:38;4.60;;;0.93;;
44766;SDS011;30487;48.716;9.272;2023-07-29T08:00:03;2.75;;;1.10;;
44766;SDS011;30487;48.716;9.272;2023-07-29T08:02:29;4.65;;;1.00;;
44766;SDS011;30487;48.716;9.272;2023-07-29T08:04:55;2.35;;;1.02;;
44766;SDS011;30487;48.716;9.272;2023-07-29T08:07:21;2.95;;;1.23;;
44766;SDS011;30487;48.716;9.272;2023-07-29T08:09:46;1.88;;;1.10;;
44766;SDS011;30487;48.716;9.272;2023-07-29T08:12:12;2.95;;;1.10;;
44766;SDS011;30487;48.716;9.272;2023-07-29T08:14:37;3.65;;;1.40;;
44766;SDS011;30487;48.716;9.272;2023-07-29T08:17:03;3.13;;;1.30;;
44766;SDS011;30487;48.716;9.272;2023-07-29T08:19:29;2.53;;;1.20;;
44766;SDS011;30487;48.716;9.272;2023-07-29T08:21:54;2.97;;;1.50;;
44766;SDS011;30487;48.716;9.272;2023-07-29T08:24:20;2.97;;;1.27;;
44766;SDS011;30487;48.716;9.272;2023-07-29T08:26:45;2.35;;;1.40;;
44766;SDS011;30487;48.716;9.272;2023-07-29T08:29:11;4.13;;;1.70;;
44766;SDS011;30487;48.716;9.272;2023-07-29T08:31:37;4.25;;;1.77;;
44766;SDS011;30487;48.716;9.272;2023-07-29T08:34:03;2.97;;;1.63;;
44766;SDS011;30487;48.716;9.272;2023-07-29T08:36:29;3.40;;;1.52;;
44766;SDS011;30487;48.716;9.272;2023-07-29T08:38:54;4.50;;;1.58;;
44766;SDS011;30487;48.716;9.272;2023-07-29T08:41:37;3.05;;;1.55;;
44766;SDS011;30487;48.716;9.272;2023-07-29T08:46:35;2.95;;;1.50;;
44766;SDS011;30487;48.716;9.272;2023-07-29T08:49:01;3.72;;;1.50;;
44766;SDS011;30487;48.716;9.272;2023-07-29T08:51:27;3.45;;;1.55;;
44766;SDS011;30487;48.716;9.272;2023-07-29T08:53:56;2.63;;;1.40;;
44766;SDS011;30487;48.716;9.272;2023-07-29T08:56:22;2.97;;;1.70;;
44766;SDS011;30487;48.716;9.272;2023-07-29T08:58:49;2.22;;;1.42;;
44766;SDS011;30487;48.716;9.272;2023-07-29T09:01:15;3.70;;;1.80;;
44766;SDS011;30487;48.716;9.272;2023-07-29T09:03:41;2.78;;;1.60;;
44766;SDS011;30487;48.716;9.272;2023-07-29T09:06:06;6.32;;;1.52;;
44766;SDS011;30487;48.716;9.272;2023-07-29T09:08:33;4.53;;;1.67;;
44766;SDS011;30487;48.716;9.272;2023-07-29T09:10:59;2.13;;;1.33;;
44766;SDS011;30487;48.716;9.272;2023-07-29T09:13:25;2.50;;;1.52;;
44766;SDS011;30487;48.716;9.272;2023-07-29T09:15:55;2.20;;;1.30;;
44766;SDS011;30487;48.716;9.272;2023-07-29T09:18:22;3.08;;;1.55;;
44766;SDS011;30487;48.716;9.272;2023-07-29T09:20:48;4.03;;;1.35;;
44766;SDS011;30487;48.716;9.272;2023-07-29T09:23:14;5.03;;;1.50;;
44766;SDS011;30487;48.716;9.272;2023-07-29T09:25:40;2.80;;;1.40;;
44766;SDS011;30487;48.716;9.272;2023-07-29T09:28:10;2.65;;;1.40;;
44766;SDS011;30487;48.716;9.272;2023-07-29T09:30:37;2.92;;;1.20;;
44766;SDS011;30487;48.716;9.272;2023-07-29T09:33:03;4.05;;;1.38;;
44766;SDS011;30487;48.716;9.272;2023-07-29T09:35:29;2.72;;;1.38;;
44766;SDS011;30487;48.716;9.272;2023-07-29T09:37:57;2.08;;;1.20;;
44766;SDS011;30487;48.716;9.272;2023-07-29T09:40:22;2.63;;;1.25;;
44766;SDS011;30487;48.716;9.272;2023-07-29T09:42:52;3.58;;;1.52;;
44766;SDS011;30487;48.716;9.272;2023-07-29T09:45:27;2.00;;;1.15;;
44766;SDS011;30487;48.716;9.272;2023-07-29T09:47:54;1.42;;;1.02;;
44766;SDS011;30487;48.716;9.272;2023-07-29T09:50:24;2.40;;;1.30;;
44766;SDS011;30487;48.716;9.272;2023-07-29T09:52:51;1.98;;;1.15;;
44766;SDS011;30487;48.716;9.272;2023-07-29T09:55:23;3.20;;;1.33;;
44766;SDS011;30487;48.716;9.272;2023-07-29T09:57:57;2.72;;;1.50;;
44766;SDS011;30487;48.716;9.272;2023-07-29T10:00:26;3.35;;;1.40;;
44766;SDS011;30487;48.716;9.272;2023-07-29T10:02:57;3.95;;;1.40;;
44766;SDS011;30487;48.716;9.272;2023-07-29T10:05:25;2.50;;;1.40;;
44766;SDS011;30487;48.716;9.272;2023-07-29T10:07:51;2.50;;;1.45;;
44766;SDS011;30487;48.716;9.272;2023-07-29T10:10:18;2.78;;;1.30;;
44766;SDS011;30487;48.716;9.272;2023-07-29T10:12:45;3.45;;;1.40;;
44766;SDS011;30487;48.716;9.272;2023-07-29T10:15:11;2.55;;;1.48;;
44766;SDS011;30487;48.716;9.272;2023-07-29T10:17:37;2.80;;;1.40;;
44766;SDS011;30487;48.716;9.272;2023-07-29T10:20:04;5.40;;;1.40;;
44766;SDS011;30487;48.716;9.272;2023-07-29T10:22:39;3.30;;;1.35;;
44766;SDS011;30487;48.716;9.272;2023-07-29T10:25:09;2.67;;;1.33;;
44766;SDS011;30487;48.716;9.272;2023-07-29T10:27:47;2.80;;;1.40;;
44766;SDS011;30487;48.716;9.272;2023-07-29T10:30:17;5.25;;;1.60;;
44766;SDS011;30487;48.716;9.272;2023-07-29T10:32:43;2.53;;;1.40;;
44766;SDS011;30487;48.716;9.272;2023-07-29T10:35:13;4.97;;;1.40;;
44766;SDS011;30487;48.716;9.272;2023-07-29T10:37:42;2.78;;;1.35;;
44766;SDS011;30487;48.716;9.272;2023-07-29T10:40:08;2.85;;;1.70;;
44766;SDS011;30487;48.716;9.272;2023-07-29T10:42:38;5.13;;;1.50;;
44766;SDS011;30487;48.716;9.272;2023-07-29T10:45:27;3.25;;;1.80;;
44766;SDS011;30487;48.716;9.272;2023-07-29T10:48:09;3.50;;;1.50;;
44766;SDS011;30487;48.716;9.272;2023-07-29T10:50:36;1.95;;;1.40;;
44766;SDS011;30487;48.716;9.272;2023-07-29T10:53:01;6.75;;;1.80;;
44766;SDS011;30487;48.716;9.272;2023-07-29T10:55:34;2.85;;;1.67;;
44766;SDS011;30487;48.716;9.272;2023-07-29T10:58:12;3.28;;;1.40;;
44766;SDS011;30487;48.716;9.272;2023-07-29T11:00:44;1.65;;;1.20;;
44766;SDS011;30487;48.716;9.272;2023-07-29T11:03:11;3.05;;;1.52;;
44766;SDS011;30487;48.716;9.272;2023-07-29T11:05:43;2.20;;;1.30;;
44766;SDS011;30487;48.716;9.272;2023-07-29T11:08:29;3.67;;;1.40;;
44766;SDS011;30487;48.716;9.272;2023-07-29T11:11:08;1.88;;;1.20;;
44766;SDS011;30487;48.716;9.272;2023-07-29T11:13:37;4.45;;;1.27;;
44766;SDS011;30487;48.716;9.272;2023-07-29T11:16:03;2.90;;;1.45;;
44766;SDS011;30487;48.716;9.272;2023-07-29T11:18:31;2.40;;;1.30;;
44766;SDS011;30487;48.716;9.272;2023-07-29T11:20:58;2.20;;;1.42;;
44766;SDS011;30487;48.716;9.272;2023-07-29T11:23:32;2.38;;;1.40;;
44766;SDS011;30487;48.716;9.272;2023-07-29T11:26:00;4.28;;;1.25;;
44766;SDS011;30487;48.716;9.272;2023-07-29T11:28:27;3.08;;;1.23;;
44766;SDS011;30487;48.716;9.272;2023-07-29T11:30:54;2.30;;;1.55;;
44766;SDS011;30487;48.716;9.272;2023-07-29T11:33:25;4.28;;;1.40;;
44766;SDS011;30487;48.716;9.272;2023-07-29T11:35:53;2.38;;;1.40;;
44766;SDS011;30487;48.716;9.272;2023-07-29T11:38:20;3.25;;;1.48;;
44766;SDS011;30487;48.716;9.272;2023-07-29T11:40:53;3.00;;;1.85;;
44766;SDS011;30487;48.716;9.272;2023-07-29T11:43:28;3.67;;;2.00;;
44766;SDS011;30487;48.716;9.272;2023-07-29T11:45:54;1.80;;;1.45;;
44766;SDS011;30487;48.716;9.272;2023-07-29T11:48:26;2.50;;;1.40;;
44766;SDS011;30487;48.716;9.272;2023-07-29T11:50:53;3.22;;;1.58;;
44766;SDS011;30487;48.716;9.272;2023-07-29T11:53:20;2.05;;;1.42;;
44766;SDS011;30487;48.716;9.272;2023-07-29T11:55:49;2.25;;;1.52;;
44766;SDS011;30487;48.716;9.272;2023-07-29T11:58:17;2.97;;;1.60;;
44766;SDS011;30487;48.716;9.272;2023-07-29T12:00:43;2.55;;;2.08;;
44766;SDS011;30487;48.716;9.272;2023-07-29T12:03:08;2.70;;;1.80;;
44766;SDS011;30487;48.716;9.272;2023-07-29T12:05:35;3.03;;;1.65;;
44766;SDS011;30487;48.716;9.272;2023-07-29T12:08:01;2.85;;;1.40;;
44766;SDS011;30487;48.716;9.272;2023-07-29T12:10:27;2.35;;;1.60;;
44766;SDS011;30487;48.716;9.272;2023-07-29T12:12:53;2.97;;;1.60;;
44766;SDS011;30487;48.716;9.272;2023-07-29T12:15:26;2.63;;;1.45;;
44766;SDS011;30487;48.716;9.272;2023-07-29T12:17:56;4.45;;;1.60;;
44766;SDS011;30487;48.716;9.272;2023-07-29T12:20:22;2.58;;;1.60;;
44766;SDS011;30487;48.716;9.272;2023-07-29T12:22:52;5.10;;;1.50;;
44766;SDS011;30487;48.716;9.272;2023-07-29T12:25:21;3.90;;;1.27;;
44766;SDS011;30487;48.716;9.272;2023-07-29T12:27:48;4.05;;;1.45;;
44766;SDS011;30487;48.716;9.272;2023-07-29T12:30:13;3.03;;;1.50;;
44766;SDS011;30487;48.716;9.272;2023-07-29T12:32:43;2.92;;;1.50;;
44766;SDS011;30487;48.716;9.272;2023-07-29T12:35:12;2.50;;;1.65;;
44766;SDS011;30487;48.716;9.272;2023-07-29T12:37:38;1.83;;;1.40;;
44766;SDS011;30487;48.716;9.272;2023-07-29T12:40:07;3.40;;;1.67;;
44766;SDS011;30487;48.716;9.272;2023-07-29T12:42:34;2.03;;;1.40;;
44766;SDS011;30487;48.716;9.272;2023-07-29T12:44:59;1.90;;;1.40;;
44766;SDS011;30487;48.716;9.272;2023-07-29T12:47:25;2.65;;;1.52;;
44766;SDS011;30487;48.716;9.272;2023-07-29T12:49:50;2.17;;;1.40;;
44766;SDS011;30487;48.716;9.272;2023-07-29T12:52:16;2.40;;;1.35;;
44766;SDS011;30487;48.716;9.272;2023-07-29T12:54:42;2.55;;;1.38;;
44766;SDS011;30487;48.716;9.272;2023-07-29T12:57:09;2.28;;;1.40;;
44766;SDS011;30487;48.716;9.272;2023-07-29T12:59:34;4.07;;;1.23;;
44766;SDS011;30487;48.716;9.272;2023-07-29T13:02:00;2.90;;;1.55;;
44766;SDS011;30487;48.716;9.272;2023-07-29T13:04:25;2.08;;;1.30;;
44766;SDS011;30487;48.716;9.272;2023-07-29T13:06:51;1.95;;;1.40;;
44766;SDS011;30487;48.716;9.272;2023-07-29T13:09:16;2.90;;;1.60;;
44766;SDS011;30487;48.716;9.272;2023-07-29T13:11:42;2.17;;;1.38;;
44766;SDS011;30487;48.716;9.272;2023-07-29T13:14:08;3.78;;;2.10;;
44766;SDS011;30487;48.716;9.272;2023-07-29T13:16:33;3.90;;;2.30;;
44766;SDS011;30487;48.716;9.272;2023-07-29T13:18:59;1.98;;;1.40;;
44766;SDS011;30487;48.716;9.272;2023-07-29T13:21:24;2.47;;;1.48;;
44766;SDS011;30487;48.716;9.272;2023-07-29T13:23:51;2.88;;;1.90;;
44766;SDS011;30487;48.716;9.272;2023-07-29T13:26:16;4.60;;;1.60;;
44766;SDS011;30487;48.716;9.272;2023-07-29T13:28:42;2.10;;;1.30;;
44766;SDS011;30487;48.716;9.272;2023-07-29T13:31:08;3.35;;;1.58;;
44766;SDS011;30487;48.716;9.272;2023-07-29T13:33:33;2.28;;;1.30;;
44766;SDS011;30487;48.716;9.272;2023-07-29T13:35:59;3.17;;;1.30;;
44766;SDS011;30487;48.716;9.272;2023-07-29T13:38:27;2.42;;;1.30;;
44766;SDS011;30487;48.716;9.272;2023-07-29T13:40:53;5.80;;;1.45;;
44766;SDS011;30487;48.716;9.272;2023-07-29T13:43:18;4.10;;;1.20;;
44766;SDS011;30487;48.716;9.272;2023-07-29T13:45:44;2.25;;;1.40;;
44766;SDS011;30487;48.716;9.272;2023-07-29T13:48:09;2.03;;;1.33;;
44766;SDS011;30487;48.716;9.272;2023-07-29T13:50:35;4.05;;;1.65;;
44766;SDS011;30487;48.716;9.272;2023-07-29T13:53:00;3.45;;;1.60;;
44766;SDS011;30487;48.716;9.272;2023-07-29T13:55:26;3.85;;;1.80;;
44766;SDS011;30487;48.716;9.272;2023-07-29T13:57:52;2.17;;;1.33;;
44766;SDS011;30487;48.716;9.272;2023-07-29T14:00:18;2.00;;;1.40;;
44766;SDS011;30487;48.716;9.272;2023-07-29T14:02:44;2.20;;;1.25;;
44766;SDS011;30487;48.716;9.272;2023-07-29T14:05:09;2.50;;;1.40;;
44766;SDS011;30487;48.716;9.272;2023-07-29T14:07:36;3.30;;;1.80;;
44766;SDS011;30487;48.716;9.272;2023-07-29T14:10:02;3.70;;;1.90;;
44766;SDS011;30487;48.716;9.272;2023-07-29T14:12:28;2.13;;;1.40;;
44766;SDS011;30487;48.716;9.272;2023-07-29T14:14:53;2.83;;;1.60;;
44766;SDS011;30487;48.716;9.272;2023-07-29T14:17:19;2.03;;;1.42;;
44766;SDS011;30487;48.716;9.272;2023-07-29T14:19:44;2.53;;;1.40;;
44766;SDS011;30487;48.716;9.272;2023-07-29T14:22:10;2.13;;;1.42;;
44766;SDS011;30487;48.716;9.272;2023-07-29T14:24:35;1.85;;;1.25;;
44766;SDS011;30487;48.716;9.272;2023-07-29T14:27:01;2.38;;;1.55;;
44766;SDS011;30487;48.716;9.272;2023-07-29T14:29:28;4.22;;;1.70;;
44766;SDS011;30487;48.716;9.272;2023-07-29T14:31:53;2.78;;;1.60;;
44766;SDS011;30487;48.716;9.272;2023-07-29T14:34:19;1.77;;;1.25;;
44766;SDS011;30487;48.716;9.272;2023-07-29T14:36:44;3.17;;;1.40;;
44766;SDS011;30487;48.716;9.272;2023-07-29T14:39:10;3.25;;;1.77;;
44766;SDS011;30487;48.716;9.272;2023-07-29T14:41:36;2.67;;;1.60;;
44766;SDS011;30487;48.716;9.272;2023-07-29T14:44:02;2.80;;;1.60;;
44766;SDS011;30487;48.716;9.272;2023-07-29T14:46:27;3.45;;;1.60;;
44766;SDS011;30487;48.716;9.272;2023-07-29T14:48:53;2.35;;;1.60;;
44766;SDS011;30487;48.716;9.272;2023-07-29T14:51:18;2.33;;;1.60;;
44766;SDS011;30487;48.716;9.272;2023-07-29T14:53:44;2.35;;;1.55;;